Estación Meteorológica Peña el Pijo (Robertgarden) [ 01/30/23 13:30:35 CET ]

Fecha Hora Presion(HPa) Temp (°C) Humedad % Rocio (°C) Viento ( m/s) Direccion Lluvia 1Hora(mm) Lluvia 24H(mm) LLuvia Total(mm)
2012-Jun-07 01:01:15 1007.800 15.2 48 4.2         159.54
2012-Jun-07 02:01:13 1007.800 14.1 52 4.4         159.54
2012-Jun-07 03:01:43 1007.300 13.6 53 4.2         159.54
2012-Jun-07 04:07:05 1006.900 13.2 53 3.8         159.54
2012-Jun-07 05:01:10 1006.300 11.9 58 3.9         159.54
2012-Jun-07 06:01:12 1005.700 11.1 63 4.3         159.54
2012-Jun-07 07:01:13 1005.700 10.9 66 4.8         159.54
2012-Jun-07 08:01:14 1005.500 11.8 67 5.8         159.54
2012-Jun-07 09:01:13 1005.800 14.1 67 8.0         159.54
2012-Jun-07 10:01:16 1005.600 18.3 62 10.9         159.54
2012-Jun-07 11:01:14 1005.400 27.9 30 8.7 1.1 NE     159.54
2012-Jun-07 12:01:12 1005.400 33.1 20 7.2         159.54
2012-Jun-07 13:01:18 1005.200 34.6 19 7.4         159.54
2012-Jun-07 14:01:11 1004.900 34.4 16 4.3 2.4 SW     159.54
2012-Jun-07 15:01:19 1004.700 35.2 15 4.0 2.4 S     159.54
2012-Jun-07 16:01:16 1004.200 33.6 19 6.8         159.54
2012-Jun-07 17:01:16 1004.100 32.2 20 6.5         159.54
2012-Jun-07 18:01:16 1004.500 30.6 26 8.7         159.54
2012-Jun-07 19:01:11 1004.700 28.4 29 8.6         159.54
2012-Jun-07 20:01:14 1005.300 26.4 30 7.5         159.54
2012-Jun-07 21:01:14 1005.100 24.8 30 6.1         159.54
2012-Jun-07 22:01:22 1005.500 23.8 29 4.7         159.54
2012-Jun-07 23:01:12 1006.100 22.5 29 3.5         159.54

Temperatura Máxima:35°    Temperatura Mínima:10°
Presión Máxima:1007.800 Hpa    Presión Mínima:1004.100 Hpa


Volver